Seattle, Washington
Traffic Map
Current Weather Conditions
Seattle, Washington
Overcast Light Rain
Overcast

Feels Like: 1°
Wind Chill: Ceiling: 6000
Heat Index: Visibility: 10mi
Dew Point: Wind: 12mph
Humidity: 93% Direction: 340° (NNW)
Pressure: 29.71in Gusts: 0mph
Raw Report DataKBFI 262353Z 34010KT 10SM -RA FEW018 SCT033 OVC060 05/04 A2971 RMK AO2 SLP060 P0000 60009 T00500039 10061 20039 53005 $
Traffic Incident Summary
Active as of:
Severity:
Category:
InformationThere was an issue retrieving the traffic information for this location. Please try a different location or try again shortly.
Advertisements
Track Severe Weather on mobile